sensor_id;sensor_type;location;lat;lon;timestamp;P1;durP1;ratioP1;P2;durP2;ratioP2
54261;SDS011;40174;52.364;6.452;2022-07-22T00:00:35;6.30;;;1.30;;
54261;SDS011;40174;52.364;6.452;2022-07-22T00:03:02;4.97;;;1.20;;
54261;SDS011;40174;52.364;6.452;2022-07-22T00:05:28;5.22;;;1.10;;
54261;SDS011;40174;52.364;6.452;2022-07-22T00:07:55;5.63;;;1.38;;
54261;SDS011;40174;52.364;6.452;2022-07-22T00:10:21;6.00;;;1.42;;
54261;SDS011;40174;52.364;6.452;2022-07-22T00:12:49;3.13;;;0.95;;
54261;SDS011;40174;52.364;6.452;2022-07-22T00:15:16;4.20;;;1.17;;
54261;SDS011;40174;52.364;6.452;2022-07-22T00:17:42;5.70;;;1.15;;
54261;SDS011;40174;52.364;6.452;2022-07-22T00:20:09;4.85;;;1.20;;
54261;SDS011;40174;52.364;6.452;2022-07-22T00:22:36;2.40;;;0.98;;
54261;SDS011;40174;52.364;6.452;2022-07-22T00:25:03;4.43;;;1.15;;
54261;SDS011;40174;52.364;6.452;2022-07-22T00:27:30;6.28;;;1.40;;
54261;SDS011;40174;52.364;6.452;2022-07-22T00:29:58;7.63;;;1.33;;
54261;SDS011;40174;52.364;6.452;2022-07-22T00:32:25;6.68;;;1.42;;
54261;SDS011;40174;52.364;6.452;2022-07-22T00:34:51;3.38;;;1.23;;
54261;SDS011;40174;52.364;6.452;2022-07-22T00:37:18;5.53;;;1.30;;
54261;SDS011;40174;52.364;6.452;2022-07-22T00:39:45;5.80;;;1.02;;
54261;SDS011;40174;52.364;6.452;2022-07-22T00:42:13;8.70;;;1.77;;
54261;SDS011;40174;52.364;6.452;2022-07-22T00:44:39;6.63;;;1.70;;
54261;SDS011;40174;52.364;6.452;2022-07-22T00:47:07;3.72;;;1.38;;
54261;SDS011;40174;52.364;6.452;2022-07-22T00:49:34;5.05;;;1.30;;
54261;SDS011;40174;52.364;6.452;2022-07-22T00:52:01;5.20;;;1.30;;
54261;SDS011;40174;52.364;6.452;2022-07-22T00:54:28;7.10;;;1.58;;
54261;SDS011;40174;52.364;6.452;2022-07-22T00:56:55;6.63;;;1.50;;
54261;SDS011;40174;52.364;6.452;2022-07-22T00:59:22;8.10;;;2.10;;
54261;SDS011;40174;52.364;6.452;2022-07-22T01:01:49;5.63;;;1.42;;
54261;SDS011;40174;52.364;6.452;2022-07-22T01:04:17;3.10;;;1.13;;
54261;SDS011;40174;52.364;6.452;2022-07-22T01:06:44;9.25;;;1.75;;
54261;SDS011;40174;52.364;6.452;2022-07-22T01:09:11;7.10;;;1.58;;
54261;SDS011;40174;52.364;6.452;2022-07-22T01:11:38;6.35;;;1.30;;
54261;SDS011;40174;52.364;6.452;2022-07-22T01:14:06;4.55;;;1.40;;
54261;SDS011;40174;52.364;6.452;2022-07-22T01:16:32;5.68;;;1.38;;
54261;SDS011;40174;52.364;6.452;2022-07-22T01:18:59;7.13;;;1.60;;
54261;SDS011;40174;52.364;6.452;2022-07-22T01:21:27;6.22;;;1.50;;
54261;SDS011;40174;52.364;6.452;2022-07-22T01:23:54;3.65;;;1.15;;
54261;SDS011;40174;52.364;6.452;2022-07-22T01:26:21;8.93;;;1.70;;
54261;SDS011;40174;52.364;6.452;2022-07-22T01:28:48;7.70;;;1.42;;
54261;SDS011;40174;52.364;6.452;2022-07-22T01:31:15;2.92;;;1.38;;
54261;SDS011;40174;52.364;6.452;2022-07-22T01:33:42;7.18;;;1.90;;
54261;SDS011;40174;52.364;6.452;2022-07-22T01:36:08;8.18;;;1.77;;
54261;SDS011;40174;52.364;6.452;2022-07-22T01:38:37;5.88;;;2.00;;
54261;SDS011;40174;52.364;6.452;2022-07-22T01:41:03;4.60;;;1.50;;
54261;SDS011;40174;52.364;6.452;2022-07-22T01:43:30;7.82;;;1.52;;
54261;SDS011;40174;52.364;6.452;2022-07-22T01:45:57;3.92;;;1.52;;
54261;SDS011;40174;52.364;6.452;2022-07-22T01:48:24;3.83;;;1.60;;
54261;SDS011;40174;52.364;6.452;2022-07-22T01:50:51;6.32;;;1.63;;
54261;SDS011;40174;52.364;6.452;2022-07-22T01:53:17;4.72;;;1.48;;
54261;SDS011;40174;52.364;6.452;2022-07-22T01:55:47;4.90;;;1.17;;
54261;SDS011;40174;52.364;6.452;2022-07-22T01:58:16;6.47;;;1.90;;
54261;SDS011;40174;52.364;6.452;2022-07-22T02:00:44;4.93;;;1.50;;
54261;SDS011;40174;52.364;6.452;2022-07-22T02:03:11;7.43;;;1.80;;
54261;SDS011;40174;52.364;6.452;2022-07-22T02:05:38;6.95;;;1.70;;
54261;SDS011;40174;52.364;6.452;2022-07-22T02:08:16;5.60;;;1.48;;
54261;SDS011;40174;52.364;6.452;2022-07-22T02:11:22;7.45;;;1.42;;
54261;SDS011;40174;52.364;6.452;2022-07-22T02:13:54;7.18;;;1.55;;
54261;SDS011;40174;52.364;6.452;2022-07-22T02:16:21;7.55;;;1.60;;
54261;SDS011;40174;52.364;6.452;2022-07-22T02:18:49;8.30;;;1.83;;
54261;SDS011;40174;52.364;6.452;2022-07-22T02:21:16;9.85;;;1.50;;
54261;SDS011;40174;52.364;6.452;2022-07-22T02:23:43;3.95;;;1.38;;
54261;SDS011;40174;52.364;6.452;2022-07-22T02:26:10;7.82;;;1.77;;
54261;SDS011;40174;52.364;6.452;2022-07-22T02:28:38;5.75;;;2.60;;
54261;SDS011;40174;52.364;6.452;2022-07-22T02:31:04;3.60;;;1.33;;
54261;SDS011;40174;52.364;6.452;2022-07-22T02:33:32;7.93;;;1.85;;
54261;SDS011;40174;52.364;6.452;2022-07-22T02:35:59;6.70;;;1.60;;
54261;SDS011;40174;52.364;6.452;2022-07-22T02:38:26;5.70;;;1.48;;
54261;SDS011;40174;52.364;6.452;2022-07-22T02:40:52;5.47;;;1.63;;
54261;SDS011;40174;52.364;6.452;2022-07-22T02:43:20;12.00;;;1.50;;
54261;SDS011;40174;52.364;6.452;2022-07-22T02:45:48;5.88;;;1.65;;
54261;SDS011;40174;52.364;6.452;2022-07-22T02:48:15;5.43;;;1.60;;
54261;SDS011;40174;52.364;6.452;2022-07-22T02:50:44;5.93;;;1.50;;
54261;SDS011;40174;52.364;6.452;2022-07-22T02:53:12;5.53;;;1.50;;
54261;SDS011;40174;52.364;6.452;2022-07-22T02:55:39;5.00;;;1.60;;
54261;SDS011;40174;52.364;6.452;2022-07-22T02:58:06;4.45;;;1.48;;
54261;SDS011;40174;52.364;6.452;2022-07-22T03:00:34;9.50;;;1.55;;
54261;SDS011;40174;52.364;6.452;2022-07-22T03:03:02;6.63;;;1.70;;
54261;SDS011;40174;52.364;6.452;2022-07-22T03:05:30;8.30;;;1.55;;
54261;SDS011;40174;52.364;6.452;2022-07-22T03:08:20;5.53;;;1.38;;
54261;SDS011;40174;52.364;6.452;2022-07-22T03:10:47;5.60;;;1.60;;
54261;SDS011;40174;52.364;6.452;2022-07-22T03:13:14;9.85;;;1.52;;
54261;SDS011;40174;52.364;6.452;2022-07-22T03:15:41;7.85;;;1.73;;
54261;SDS011;40174;52.364;6.452;2022-07-22T03:18:09;3.30;;;1.13;;
54261;SDS011;40174;52.364;6.452;2022-07-22T03:20:35;5.05;;;1.45;;
54261;SDS011;40174;52.364;6.452;2022-07-22T03:23:02;5.72;;;1.75;;
54261;SDS011;40174;52.364;6.452;2022-07-22T03:25:29;10.73;;;1.75;;
54261;SDS011;40174;52.364;6.452;2022-07-22T03:27:58;6.10;;;1.50;;
54261;SDS011;40174;52.364;6.452;2022-07-22T03:30:24;5.93;;;1.60;;
54261;SDS011;40174;52.364;6.452;2022-07-22T03:32:51;9.63;;;1.75;;
54261;SDS011;40174;52.364;6.452;2022-07-22T03:35:21;4.72;;;1.23;;
54261;SDS011;40174;52.364;6.452;2022-07-22T03:37:48;7.35;;;1.70;;
54261;SDS011;40174;52.364;6.452;2022-07-22T03:40:16;4.68;;;1.80;;
54261;SDS011;40174;52.364;6.452;2022-07-22T03:42:43;7.93;;;1.15;;
54261;SDS011;40174;52.364;6.452;2022-07-22T03:45:10;3.75;;;1.45;;
54261;SDS011;40174;52.364;6.452;2022-07-22T03:47:39;12.65;;;1.70;;
54261;SDS011;40174;52.364;6.452;2022-07-22T03:50:06;3.90;;;1.63;;
54261;SDS011;40174;52.364;6.452;2022-07-22T03:52:35;5.90;;;1.35;;
54261;SDS011;40174;52.364;6.452;2022-07-22T03:55:06;5.85;;;1.13;;
54261;SDS011;40174;52.364;6.452;2022-07-22T03:57:33;6.10;;;1.13;;
54261;SDS011;40174;52.364;6.452;2022-07-22T04:00:11;7.30;;;1.42;;
54261;SDS011;40174;52.364;6.452;2022-07-22T04:02:43;4.88;;;1.40;;
54261;SDS011;40174;52.364;6.452;2022-07-22T04:05:16;2.85;;;1.20;;
54261;SDS011;40174;52.364;6.452;2022-07-22T04:07:44;3.25;;;1.48;;
54261;SDS011;40174;52.364;6.452;2022-07-22T04:10:11;3.28;;;1.25;;
54261;SDS011;40174;52.364;6.452;2022-07-22T04:12:41;5.82;;;1.25;;
54261;SDS011;40174;52.364;6.452;2022-07-22T04:15:13;3.17;;;1.10;;
54261;SDS011;40174;52.364;6.452;2022-07-22T04:17:40;2.75;;;1.17;;
54261;SDS011;40174;52.364;6.452;2022-07-22T04:20:07;6.07;;;1.40;;
54261;SDS011;40174;52.364;6.452;2022-07-22T04:22:56;6.88;;;1.50;;
54261;SDS011;40174;52.364;6.452;2022-07-22T04:25:23;4.35;;;1.65;;
54261;SDS011;40174;52.364;6.452;2022-07-22T04:27:49;4.93;;;1.20;;
54261;SDS011;40174;52.364;6.452;2022-07-22T04:30:17;4.65;;;1.73;;
54261;SDS011;40174;52.364;6.452;2022-07-22T04:32:47;7.07;;;1.50;;
54261;SDS011;40174;52.364;6.452;2022-07-22T04:35:14;6.07;;;1.48;;
54261;SDS011;40174;52.364;6.452;2022-07-22T04:37:49;9.68;;;1.60;;
54261;SDS011;40174;52.364;6.452;2022-07-22T04:40:17;8.15;;;1.38;;
54261;SDS011;40174;52.364;6.452;2022-07-22T04:42:43;6.53;;;1.27;;
54261;SDS011;40174;52.364;6.452;2022-07-22T04:45:10;9.35;;;1.52;;
54261;SDS011;40174;52.364;6.452;2022-07-22T04:47:38;2.92;;;1.42;;
54261;SDS011;40174;52.364;6.452;2022-07-22T04:50:05;6.65;;;1.55;;
54261;SDS011;40174;52.364;6.452;2022-07-22T04:52:32;8.23;;;1.60;;
54261;SDS011;40174;52.364;6.452;2022-07-22T04:54:59;5.38;;;1.80;;
54261;SDS011;40174;52.364;6.452;2022-07-22T04:57:27;5.95;;;1.48;;
54261;SDS011;40174;52.364;6.452;2022-07-22T04:59:57;4.70;;;1.75;;
54261;SDS011;40174;52.364;6.452;2022-07-22T05:02:23;8.23;;;1.50;;
54261;SDS011;40174;52.364;6.452;2022-07-22T05:04:50;4.28;;;1.50;;
54261;SDS011;40174;52.364;6.452;2022-07-22T05:07:16;7.18;;;1.80;;
54261;SDS011;40174;52.364;6.452;2022-07-22T05:09:43;5.75;;;1.73;;
54261;SDS011;40174;52.364;6.452;2022-07-22T05:12:13;4.80;;;1.48;;
54261;SDS011;40174;52.364;6.452;2022-07-22T05:14:41;10.20;;;1.63;;
54261;SDS011;40174;52.364;6.452;2022-07-22T05:17:08;9.77;;;2.05;;
54261;SDS011;40174;52.364;6.452;2022-07-22T05:19:39;3.65;;;1.77;;
54261;SDS011;40174;52.364;6.452;2022-07-22T05:22:09;8.15;;;1.55;;
54261;SDS011;40174;52.364;6.452;2022-07-22T05:24:36;12.25;;;2.55;;
54261;SDS011;40174;52.364;6.452;2022-07-22T05:27:03;8.88;;;2.10;;
54261;SDS011;40174;52.364;6.452;2022-07-22T05:29:29;9.35;;;1.92;;
54261;SDS011;40174;52.364;6.452;2022-07-22T05:31:58;7.20;;;1.85;;
54261;SDS011;40174;52.364;6.452;2022-07-22T05:34:24;9.77;;;2.58;;
54261;SDS011;40174;52.364;6.452;2022-07-22T05:36:53;6.85;;;2.05;;
54261;SDS011;40174;52.364;6.452;2022-07-22T05:39:19;9.75;;;2.05;;
54261;SDS011;40174;52.364;6.452;2022-07-22T05:41:46;9.23;;;2.63;;
54261;SDS011;40174;52.364;6.452;2022-07-22T05:44:13;9.43;;;2.38;;
54261;SDS011;40174;52.364;6.452;2022-07-22T05:46:40;7.75;;;1.83;;
54261;SDS011;40174;52.364;6.452;2022-07-22T05:49:08;7.82;;;3.17;;
54261;SDS011;40174;52.364;6.452;2022-07-22T05:51:47;6.05;;;2.10;;
54261;SDS011;40174;52.364;6.452;2022-07-22T05:54:14;4.53;;;2.20;;
54261;SDS011;40174;52.364;6.452;2022-07-22T05:56:40;6.18;;;1.77;;
54261;SDS011;40174;52.364;6.452;2022-07-22T05:59:07;9.63;;;2.05;;
54261;SDS011;40174;52.364;6.452;2022-07-22T06:01:33;9.27;;;2.03;;
54261;SDS011;40174;52.364;6.452;2022-07-22T06:04:09;9.38;;;2.28;;
54261;SDS011;40174;52.364;6.452;2022-07-22T06:06:36;6.63;;;2.40;;
54261;SDS011;40174;52.364;6.452;2022-07-22T06:09:03;5.25;;;1.92;;
54261;SDS011;40174;52.364;6.452;2022-07-22T06:11:30;7.53;;;2.13;;
54261;SDS011;40174;52.364;6.452;2022-07-22T06:13:57;14.13;;;2.45;;
54261;SDS011;40174;52.364;6.452;2022-07-22T06:16:24;10.02;;;1.98;;
54261;SDS011;40174;52.364;6.452;2022-07-22T06:18:54;9.25;;;2.15;;
54261;SDS011;40174;52.364;6.452;2022-07-22T06:21:23;6.80;;;1.88;;
54261;SDS011;40174;52.364;6.452;2022-07-22T06:23:49;8.00;;;1.85;;
54261;SDS011;40174;52.364;6.452;2022-07-22T06:26:17;11.85;;;1.92;;
54261;SDS011;40174;52.364;6.452;2022-07-22T06:28:43;5.07;;;1.77;;
54261;SDS011;40174;52.364;6.452;2022-07-22T06:31:10;7.20;;;2.00;;
54261;SDS011;40174;52.364;6.452;2022-07-22T06:33:37;6.60;;;1.88;;
54261;SDS011;40174;52.364;6.452;2022-07-22T06:36:04;10.43;;;1.90;;
54261;SDS011;40174;52.364;6.452;2022-07-22T06:38:33;4.00;;;1.67;;
54261;SDS011;40174;52.364;6.452;2022-07-22T06:41:26;7.85;;;1.75;;
54261;SDS011;40174;52.364;6.452;2022-07-22T06:44:13;5.47;;;1.40;;
54261;SDS011;40174;52.364;6.452;2022-07-22T06:47:08;5.15;;;1.50;;
54261;SDS011;40174;52.364;6.452;2022-07-22T06:49:37;4.63;;;1.55;;
54261;SDS011;40174;52.364;6.452;2022-07-22T06:52:04;5.00;;;1.23;;
54261;SDS011;40174;52.364;6.452;2022-07-22T06:54:32;6.55;;;1.40;;
54261;SDS011;40174;52.364;6.452;2022-07-22T06:57:01;5.55;;;1.33;;
54261;SDS011;40174;52.364;6.452;2022-07-22T06:59:31;3.55;;;1.15;;
54261;SDS011;40174;52.364;6.452;2022-07-22T07:01:59;7.68;;;1.20;;
54261;SDS011;40174;52.364;6.452;2022-07-22T07:04:26;5.13;;;1.00;;
54261;SDS011;40174;52.364;6.452;2022-07-22T07:06:53;5.80;;;1.20;;
54261;SDS011;40174;52.364;6.452;2022-07-22T07:09:44;8.75;;;1.25;;
54261;SDS011;40174;52.364;6.452;2022-07-22T07:12:18;5.65;;;1.58;;
54261;SDS011;40174;52.364;6.452;2022-07-22T07:15:04;5.35;;;1.20;;
54261;SDS011;40174;52.364;6.452;2022-07-22T07:17:32;4.18;;;1.00;;
54261;SDS011;40174;52.364;6.452;2022-07-22T07:20:00;3.95;;;0.90;;
54261;SDS011;40174;52.364;6.452;2022-07-22T07:22:27;2.70;;;0.90;;
54261;SDS011;40174;52.364;6.452;2022-07-22T07:24:55;5.45;;;1.17;;
54261;SDS011;40174;52.364;6.452;2022-07-22T07:27:22;4.47;;;1.10;;
54261;SDS011;40174;52.364;6.452;2022-07-22T07:29:51;8.30;;;1.17;;
54261;SDS011;40174;52.364;6.452;2022-07-22T07:32:18;2.72;;;1.00;;
54261;SDS011;40174;52.364;6.452;2022-07-22T07:34:46;3.78;;;1.08;;
54261;SDS011;40174;52.364;6.452;2022-07-22T07:37:12;4.75;;;1.13;;
54261;SDS011;40174;52.364;6.452;2022-07-22T07:39:39;2.03;;;0.82;;
54261;SDS011;40174;52.364;6.452;2022-07-22T07:42:08;6.75;;;1.25;;
54261;SDS011;40174;52.364;6.452;2022-07-22T07:44:35;3.13;;;0.90;;
54261;SDS011;40174;52.364;6.452;2022-07-22T07:47:02;4.00;;;1.15;;
54261;SDS011;40174;52.364;6.452;2022-07-22T07:49:29;6.13;;;0.98;;
54261;SDS011;40174;52.364;6.452;2022-07-22T07:51:57;2.08;;;1.05;;
54261;SDS011;40174;52.364;6.452;2022-07-22T07:54:24;5.28;;;1.17;;
54261;SDS011;40174;52.364;6.452;2022-07-22T07:56:52;2.60;;;0.95;;
54261;SDS011;40174;52.364;6.452;2022-07-22T07:59:20;4.90;;;1.00;;
54261;SDS011;40174;52.364;6.452;2022-07-22T08:01:48;2.35;;;1.20;;
54261;SDS011;40174;52.364;6.452;2022-07-22T08:04:14;2.88;;;1.00;;
54261;SDS011;40174;52.364;6.452;2022-07-22T08:06:41;3.78;;;0.82;;
54261;SDS011;40174;52.364;6.452;2022-07-22T08:09:08;5.88;;;1.27;;
54261;SDS011;40174;52.364;6.452;2022-07-22T08:11:39;1.55;;;0.80;;
54261;SDS011;40174;52.364;6.452;2022-07-22T08:14:33;7.07;;;1.17;;
54261;SDS011;40174;52.364;6.452;2022-07-22T08:17:23;2.67;;;1.05;;
54261;SDS011;40174;52.364;6.452;2022-07-22T08:19:50;4.07;;;1.30;;
54261;SDS011;40174;52.364;6.452;2022-07-22T08:22:17;2.97;;;1.30;;
54261;SDS011;40174;52.364;6.452;2022-07-22T08:24:45;2.88;;;1.00;;
54261;SDS011;40174;52.364;6.452;2022-07-22T08:27:15;4.53;;;1.10;;
54261;SDS011;40174;52.364;6.452;2022-07-22T08:29:42;8.93;;;1.63;;
54261;SDS011;40174;52.364;6.452;2022-07-22T08:32:09;3.85;;;1.00;;
54261;SDS011;40174;52.364;6.452;2022-07-22T08:34:36;2.53;;;0.95;;
54261;SDS011;40174;52.364;6.452;2022-07-22T08:37:05;3.33;;;1.15;;
54261;SDS011;40174;52.364;6.452;2022-07-22T08:39:32;1.65;;;0.85;;
54261;SDS011;40174;52.364;6.452;2022-07-22T08:42:00;3.45;;;1.13;;
54261;SDS011;40174;52.364;6.452;2022-07-22T08:44:28;3.28;;;1.10;;
54261;SDS011;40174;52.364;6.452;2022-07-22T08:46:57;5.72;;;1.33;;
54261;SDS011;40174;52.364;6.452;2022-07-22T08:49:52;2.92;;;1.00;;
54261;SDS011;40174;52.364;6.452;2022-07-22T08:52:31;3.70;;;0.77;;
54261;SDS011;40174;52.364;6.452;2022-07-22T08:54:58;4.40;;;1.08;;
54261;SDS011;40174;52.364;6.452;2022-07-22T08:57:24;4.05;;;1.08;;
54261;SDS011;40174;52.364;6.452;2022-07-22T08:59:51;4.47;;;1.40;;
54261;SDS011;40174;52.364;6.452;2022-07-22T09:02:20;4.35;;;1.25;;
54261;SDS011;40174;52.364;6.452;2022-07-22T09:04:53;2.45;;;1.00;;
54261;SDS011;40174;52.364;6.452;2022-07-22T09:07:28;4.78;;;1.60;;
54261;SDS011;40174;52.364;6.452;2022-07-22T09:10:04;4.13;;;0.98;;
54261;SDS011;40174;52.364;6.452;2022-07-22T09:13:11;2.38;;;1.10;;
54261;SDS011;40174;52.364;6.452;2022-07-22T09:16:07;5.03;;;0.98;;
54261;SDS011;40174;52.364;6.452;2022-07-22T09:19:06;5.00;;;1.52;;
54261;SDS011;40174;52.364;6.452;2022-07-22T09:21:34;5.72;;;1.58;;
54261;SDS011;40174;52.364;6.452;2022-07-22T09:24:07;4.63;;;0.90;;
54261;SDS011;40174;52.364;6.452;2022-07-22T09:26:53;6.53;;;1.10;;
54261;SDS011;40174;52.364;6.452;2022-07-22T09:29:27;4.07;;;0.90;;
54261;SDS011;40174;52.364;6.452;2022-07-22T09:32:14;3.03;;;0.90;;
54261;SDS011;40174;52.364;6.452;2022-07-22T09:35:02;7.50;;;1.13;;
54261;SDS011;40174;52.364;6.452;2022-07-22T09:37:34;4.43;;;0.70;;
54261;SDS011;40174;52.364;6.452;2022-07-22T09:40:11;2.15;;;0.80;;
54261;SDS011;40174;52.364;6.452;2022-07-22T09:42:43;3.70;;;0.90;;
54261;SDS011;40174;52.364;6.452;2022-07-22T09:45:11;2.88;;;1.00;;
54261;SDS011;40174;52.364;6.452;2022-07-22T09:47:40;3.53;;;1.25;;
54261;SDS011;40174;52.364;6.452;2022-07-22T09:50:29;5.65;;;0.93;;
54261;SDS011;40174;52.364;6.452;2022-07-22T09:53:16;1.88;;;0.88;;
54261;SDS011;40174;52.364;6.452;2022-07-22T09:56:06;3.65;;;0.88;;
54261;SDS011;40174;52.364;6.452;2022-07-22T09:58:34;16.63;;;2.00;;
54261;SDS011;40174;52.364;6.452;2022-07-22T10:01:05;2.60;;;1.00;;
54261;SDS011;40174;52.364;6.452;2022-07-22T10:03:34;2.70;;;0.95;;
54261;SDS011;40174;52.364;6.452;2022-07-22T10:06:06;4.13;;;0.98;;
54261;SDS011;40174;52.364;6.452;2022-07-22T10:08:35;2.13;;;0.73;;
54261;SDS011;40174;52.364;6.452;2022-07-22T10:11:05;4.28;;;1.00;;
54261;SDS011;40174;52.364;6.452;2022-07-22T10:13:33;4.43;;;1.63;;
54261;SDS011;40174;52.364;6.452;2022-07-22T10:16:03;5.30;;;0.95;;
54261;SDS011;40174;52.364;6.452;2022-07-22T10:18:31;1.13;;;0.77;;
54261;SDS011;40174;52.364;6.452;2022-07-22T10:21:02;5.97;;;1.33;;
54261;SDS011;40174;52.364;6.452;2022-07-22T10:23:32;5.00;;;1.40;;
54261;SDS011;40174;52.364;6.452;2022-07-22T10:25:59;3.55;;;0.95;;
54261;SDS011;40174;52.364;6.452;2022-07-22T10:28:29;5.50;;;1.27;;
54261;SDS011;40174;52.364;6.452;2022-07-22T10:33:47;4.75;;;0.95;;
54261;SDS011;40174;52.364;6.452;2022-07-22T10:36:15;3.88;;;0.90;;
54261;SDS011;40174;52.364;6.452;2022-07-22T10:39:07;4.43;;;1.10;;
54261;SDS011;40174;52.364;6.452;2022-07-22T10:41:35;4.22;;;0.80;;
54261;SDS011;40174;52.364;6.452;2022-07-22T10:44:03;3.88;;;1.20;;
54261;SDS011;40174;52.364;6.452;2022-07-22T10:46:50;1.92;;;0.82;;
54261;SDS011;40174;52.364;6.452;2022-07-22T10:49:18;4.45;;;1.00;;
54261;SDS011;40174;52.364;6.452;2022-07-22T10:55:16;3.60;;;0.88;;
54261;SDS011;40174;52.364;6.452;2022-07-22T10:57:43;2.72;;;0.93;;
54261;SDS011;40174;52.364;6.452;2022-07-22T11:00:13;2.40;;;0.98;;
54261;SDS011;40174;52.364;6.452;2022-07-22T11:02:40;3.50;;;0.73;;
54261;SDS011;40174;52.364;6.452;2022-07-22T11:05:08;2.50;;;0.90;;
54261;SDS011;40174;52.364;6.452;2022-07-22T11:07:40;1.35;;;0.85;;
54261;SDS011;40174;52.364;6.452;2022-07-22T11:10:10;4.03;;;0.90;;
54261;SDS011;40174;52.364;6.452;2022-07-22T11:12:40;3.78;;;0.70;;
54261;SDS011;40174;52.364;6.452;2022-07-22T11:15:07;3.58;;;0.75;;
54261;SDS011;40174;52.364;6.452;2022-07-22T11:17:35;1.95;;;0.73;;
54261;SDS011;40174;52.364;6.452;2022-07-22T11:20:02;4.18;;;0.75;;
54261;SDS011;40174;52.364;6.452;2022-07-22T11:22:31;2.88;;;0.80;;
54261;SDS011;40174;52.364;6.452;2022-07-22T11:24:59;2.85;;;0.55;;
54261;SDS011;40174;52.364;6.452;2022-07-22T11:27:27;2.53;;;0.68;;
54261;SDS011;40174;52.364;6.452;2022-07-22T11:29:55;2.70;;;0.82;;
54261;SDS011;40174;52.364;6.452;2022-07-22T11:32:23;2.42;;;0.77;;
54261;SDS011;40174;52.364;6.452;2022-07-22T11:34:52;1.20;;;0.68;;
54261;SDS011;40174;52.364;6.452;2022-07-22T11:37:20;2.25;;;0.77;;
54261;SDS011;40174;52.364;6.452;2022-07-22T11:39:49;2.53;;;0.90;;
54261;SDS011;40174;52.364;6.452;2022-07-22T11:42:16;2.30;;;0.70;;
54261;SDS011;40174;52.364;6.452;2022-07-22T11:44:43;5.45;;;0.90;;
54261;SDS011;40174;52.364;6.452;2022-07-22T11:47:11;1.35;;;0.70;;
54261;SDS011;40174;52.364;6.452;2022-07-22T11:49:38;3.28;;;1.02;;
54261;SDS011;40174;52.364;6.452;2022-07-22T11:52:06;3.65;;;0.95;;
54261;SDS011;40174;52.364;6.452;2022-07-22T11:54:37;3.50;;;0.90;;
54261;SDS011;40174;52.364;6.452;2022-07-22T11:57:04;3.03;;;1.08;;
54261;SDS011;40174;52.364;6.452;2022-07-22T11:59:30;2.85;;;0.77;;
54261;SDS011;40174;52.364;6.452;2022-07-22T12:01:58;3.58;;;0.82;;
54261;SDS011;40174;52.364;6.452;2022-07-22T12:04:26;5.22;;;0.90;;
54261;SDS011;40174;52.364;6.452;2022-07-22T12:06:54;2.78;;;0.77;;
54261;SDS011;40174;52.364;6.452;2022-07-22T12:09:24;4.20;;;0.90;;
54261;SDS011;40174;52.364;6.452;2022-07-22T12:11:54;3.90;;;1.27;;
54261;SDS011;40174;52.364;6.452;2022-07-22T12:14:24;5.65;;;1.00;;
54261;SDS011;40174;52.364;6.452;2022-07-22T12:16:56;3.70;;;0.88;;
54261;SDS011;40174;52.364;6.452;2022-07-22T12:19:24;2.17;;;0.82;;
54261;SDS011;40174;52.364;6.452;2022-07-22T12:21:55;1.10;;;0.70;;
54261;SDS011;40174;52.364;6.452;2022-07-22T12:24:27;1.73;;;0.85;;
54261;SDS011;40174;52.364;6.452;2022-07-22T12:26:56;2.13;;;0.80;;
54261;SDS011;40174;52.364;6.452;2022-07-22T12:29:24;3.08;;;1.30;;
54261;SDS011;40174;52.364;6.452;2022-07-22T12:31:53;3.63;;;0.98;;
54261;SDS011;40174;52.364;6.452;2022-07-22T12:34:29;2.97;;;1.33;;
54261;SDS011;40174;52.364;6.452;2022-07-22T12:36:58;2.85;;;1.08;;
54261;SDS011;40174;52.364;6.452;2022-07-22T12:39:27;1.42;;;1.00;;
54261;SDS011;40174;52.364;6.452;2022-07-22T12:41:54;2.15;;;0.80;;
54261;SDS011;40174;52.364;6.452;2022-07-22T12:44:22;2.08;;;0.90;;
54261;SDS011;40174;52.364;6.452;2022-07-22T12:46:50;2.78;;;1.10;;
54261;SDS011;40174;52.364;6.452;2022-07-22T12:49:23;3.85;;;0.80;;
54261;SDS011;40174;52.364;6.452;2022-07-22T12:52:09;5.07;;;0.95;;
54261;SDS011;40174;52.364;6.452;2022-07-22T12:54:37;4.50;;;0.98;;
54261;SDS011;40174;52.364;6.452;2022-07-22T12:57:05;4.43;;;1.15;;
54261;SDS011;40174;52.364;6.452;2022-07-22T12:59:33;3.35;;;1.08;;
54261;SDS011;40174;52.364;6.452;2022-07-22T13:02:01;3.58;;;1.25;;
54261;SDS011;40174;52.364;6.452;2022-07-22T13:04:28;2.10;;;1.17;;
54261;SDS011;40174;52.364;6.452;2022-07-22T13:06:55;1.83;;;1.17;;
54261;SDS011;40174;52.364;6.452;2022-07-22T13:09:23;3.15;;;1.27;;
54261;SDS011;40174;52.364;6.452;2022-07-22T13:11:49;2.10;;;1.00;;
54261;SDS011;40174;52.364;6.452;2022-07-22T13:14:16;2.92;;;1.00;;
54261;SDS011;40174;52.364;6.452;2022-07-22T13:16:42;4.78;;;1.02;;
54261;SDS011;40174;52.364;6.452;2022-07-22T13:19:09;7.85;;;1.40;;
54261;SDS011;40174;52.364;6.452;2022-07-22T13:21:35;3.15;;;1.10;;
54261;SDS011;40174;52.364;6.452;2022-07-22T13:24:02;3.83;;;1.08;;
54261;SDS011;40174;52.364;6.452;2022-07-22T13:26:30;2.33;;;1.17;;
54261;SDS011;40174;52.364;6.452;2022-07-22T13:28:57;4.50;;;1.30;;
54261;SDS011;40174;52.364;6.452;2022-07-22T13:31:24;5.38;;;1.42;;
54261;SDS011;40174;52.364;6.452;2022-07-22T13:33:51;3.38;;;0.70;;
54261;SDS011;40174;52.364;6.452;2022-07-22T13:36:18;4.70;;;1.10;;
54261;SDS011;40174;52.364;6.452;2022-07-22T13:38:45;3.75;;;0.93;;
54261;SDS011;40174;52.364;6.452;2022-07-22T13:41:12;2.63;;;1.05;;
54261;SDS011;40174;52.364;6.452;2022-07-22T13:43:44;3.90;;;1.10;;
54261;SDS011;40174;52.364;6.452;2022-07-22T13:46:11;2.15;;;0.80;;
54261;SDS011;40174;52.364;6.452;2022-07-22T13:48:38;3.42;;;1.08;;
54261;SDS011;40174;52.364;6.452;2022-07-22T13:51:05;5.50;;;1.13;;
54261;SDS011;40174;52.364;6.452;2022-07-22T13:53:32;5.15;;;1.17;;
54261;SDS011;40174;52.364;6.452;2022-07-22T13:55:59;1.55;;;0.93;;
54261;SDS011;40174;52.364;6.452;2022-07-22T13:58:26;2.08;;;0.93;;
54261;SDS011;40174;52.364;6.452;2022-07-22T14:00:54;2.92;;;0.85;;
54261;SDS011;40174;52.364;6.452;2022-07-22T14:03:21;5.88;;;1.10;;
54261;SDS011;40174;52.364;6.452;2022-07-22T14:05:47;2.45;;;0.90;;
54261;SDS011;40174;52.364;6.452;2022-07-22T14:08:14;2.13;;;0.90;;
54261;SDS011;40174;52.364;6.452;2022-07-22T14:10:41;3.63;;;0.95;;
54261;SDS011;40174;52.364;6.452;2022-07-22T14:13:07;3.28;;;1.13;;
54261;SDS011;40174;52.364;6.452;2022-07-22T14:15:34;8.02;;;1.00;;
54261;SDS011;40174;52.364;6.452;2022-07-22T14:18:02;3.10;;;1.05;;
54261;SDS011;40174;52.364;6.452;2022-07-22T14:20:31;2.88;;;0.90;;
54261;SDS011;40174;52.364;6.452;2022-07-22T14:22:58;2.78;;;1.02;;
54261;SDS011;40174;52.364;6.452;2022-07-22T14:25:24;3.65;;;0.65;;
54261;SDS011;40174;52.364;6.452;2022-07-22T14:27:51;3.35;;;1.00;;
54261;SDS011;40174;52.364;6.452;2022-07-22T14:30:18;3.17;;;0.73;;
54261;SDS011;40174;52.364;6.452;2022-07-22T14:32:44;4.50;;;1.13;;
54261;SDS011;40174;52.364;6.452;2022-07-22T14:35:12;2.50;;;0.90;;
54261;SDS011;40174;52.364;6.452;2022-07-22T14:37:39;3.05;;;1.00;;
54261;SDS011;40174;52.364;6.452;2022-07-22T14:40:05;2.63;;;0.85;;
54261;SDS011;40174;52.364;6.452;2022-07-22T14:42:33;2.65;;;1.02;;
54261;SDS011;40174;52.364;6.452;2022-07-22T14:44:59;1.52;;;0.85;;
54261;SDS011;40174;52.364;6.452;2022-07-22T14:47:26;3.58;;;1.20;;
54261;SDS011;40174;52.364;6.452;2022-07-22T14:49:53;1.25;;;0.70;;
54261;SDS011;40174;52.364;6.452;2022-07-22T14:52:20;2.00;;;1.10;;
54261;SDS011;40174;52.364;6.452;2022-07-22T14:54:47;1.65;;;0.95;;
54261;SDS011;40174;52.364;6.452;2022-07-22T14:57:13;2.33;;;0.73;;
54261;SDS011;40174;52.364;6.452;2022-07-22T14:59:40;5.45;;;1.25;;
54261;SDS011;40174;52.364;6.452;2022-07-22T15:02:07;2.13;;;0.93;;
54261;SDS011;40174;52.364;6.452;2022-07-22T15:04:33;3.60;;;1.02;;
54261;SDS011;40174;52.364;6.452;2022-07-22T15:07:00;6.05;;;1.15;;